createdAt,value
2022-12-03T00:00:12.118Z,18.95
2022-12-03T00:01:15.248Z,17.65
2022-12-03T00:02:17.625Z,19.75
2022-12-03T00:03:20.296Z,20.38
2022-12-03T00:04:22.879Z,19.63
2022-12-03T00:05:25.162Z,21.55
2022-12-03T00:06:32.940Z,17.80
2022-12-03T00:07:36.760Z,20.00
2022-12-03T00:08:39.000Z,20.40
2022-12-03T00:09:41.240Z,18.52
2022-12-03T00:10:43.504Z,21.40
2022-12-03T00:11:45.734Z,18.35
2022-12-03T00:12:48.000Z,18.85
2022-12-03T00:13:50.151Z,18.50
2022-12-03T00:14:52.677Z,19.80
2022-12-03T00:15:55.066Z,21.58
2022-12-03T00:16:57.475Z,19.00
2022-12-03T00:17:59.747Z,20.60
2022-12-03T00:19:02.640Z,22.67
2022-12-03T00:20:07.856Z,20.00
2022-12-03T00:21:10.178Z,19.73
2022-12-03T00:22:12.936Z,19.35
2022-12-03T00:23:15.283Z,20.70
2022-12-03T00:24:17.531Z,18.15
2022-12-03T00:25:19.875Z,19.85
2022-12-03T00:26:22.063Z,18.15
2022-12-03T00:27:24.541Z,20.60
2022-12-03T00:28:26.865Z,19.75
2022-12-03T00:29:29.118Z,19.23
2022-12-03T00:30:31.369Z,18.25
2022-12-03T00:31:33.735Z,19.85
2022-12-03T00:32:36.053Z,20.40
2022-12-03T00:33:38.283Z,17.27
2022-12-03T00:34:40.556Z,19.20
2022-12-03T00:35:42.828Z,19.77
2022-12-03T00:36:45.087Z,19.45
2022-12-03T00:37:47.447Z,20.83
2022-12-03T00:38:49.689Z,19.88
2022-12-03T00:39:51.985Z,18.80
2022-12-03T00:40:54.216Z,19.27
2022-12-03T00:41:57.007Z,18.88
2022-12-03T00:42:59.329Z,17.75
2022-12-03T00:44:01.609Z,20.38
2022-12-03T00:45:04.257Z,19.15
2022-12-03T00:46:06.608Z,20.60
2022-12-03T00:47:09.886Z,19.90
2022-12-03T00:48:12.181Z,19.10
2022-12-03T00:49:14.515Z,17.00
2022-12-03T00:50:16.901Z,17.88
2022-12-03T00:51:19.487Z,20.00
2022-12-03T00:52:21.835Z,20.27
2022-12-03T00:53:24.299Z,21.42
2022-12-03T00:54:31.596Z,21.52
2022-12-03T00:55:34.241Z,20.10
2022-12-03T00:56:36.443Z,20.30
2022-12-03T00:57:38.679Z,18.30
2022-12-03T00:58:40.876Z,20.08
2022-12-03T00:59:43.191Z,17.98
2022-12-03T01:00:45.396Z,19.55
2022-12-03T01:01:47.800Z,19.88
2022-12-03T01:02:50.859Z,20.10
2022-12-03T01:03:53.004Z,20.40
2022-12-03T01:04:56.638Z,19.02
2022-12-03T01:05:59.130Z,18.92
2022-12-03T01:07:01.762Z,19.50
2022-12-03T01:08:04.230Z,19.25
2022-12-03T01:09:06.577Z,19.38
2022-12-03T01:10:09.127Z,21.20
2022-12-03T01:11:31.359Z,19.38
2022-12-03T01:12:33.603Z,21.98
2022-12-03T01:13:35.804Z,20.85
2022-12-03T01:14:38.149Z,18.83
2022-12-03T01:15:40.453Z,18.02
2022-12-03T01:16:43.052Z,20.40
2022-12-03T01:17:45.275Z,20.90
2022-12-03T01:18:47.528Z,18.20
2022-12-03T01:19:52.488Z,18.13
2022-12-03T01:20:54.728Z,21.85
2022-12-03T01:21:57.041Z,20.55
2022-12-03T01:22:59.286Z,19.90
2022-12-03T01:24:01.542Z,19.08
2022-12-03T01:25:04.464Z,20.25
2022-12-03T01:26:06.776Z,21.55
2022-12-03T01:27:09.092Z,20.33
2022-12-03T01:28:11.691Z,22.30
2022-12-03T01:29:14.620Z,21.98
2022-12-03T01:30:16.916Z,20.65
2022-12-03T01:31:38.104Z,23.40
2022-12-03T01:32:40.446Z,19.88
2022-12-03T01:33:42.651Z,20.30
2022-12-03T01:34:53.035Z,21.23
2022-12-03T01:35:55.643Z,21.67
2022-12-03T01:36:57.955Z,22.23
2022-12-03T01:38:00.212Z,21.75
2022-12-03T01:39:03.294Z,21.27
2022-12-03T01:40:07.652Z,22.55
2022-12-03T01:41:11.829Z,24.45
2022-12-03T01:42:21.196Z,23.55
2022-12-03T01:43:23.431Z,20.10
2022-12-03T01:44:36.673Z,21.48
2022-12-03T01:45:38.943Z,20.90
2022-12-03T01:46:42.649Z,21.95
2022-12-03T01:47:45.041Z,22.42
2022-12-03T01:48:49.049Z,23.30
2022-12-03T01:49:55.192Z,22.45
2022-12-03T01:50:57.505Z,22.45
2022-12-03T01:52:01.245Z,22.58
2022-12-03T01:53:04.989Z,22.17
2022-12-03T01:54:16.151Z,21.25
2022-12-03T01:55:21.135Z,22.83
2022-12-03T01:56:23.352Z,27.10
2022-12-03T01:57:29.740Z,24.95
2022-12-03T01:58:32.250Z,22.98
2022-12-03T01:59:37.331Z,22.25
2022-12-03T02:00:40.440Z,20.25
2022-12-03T02:01:42.967Z,22.20
2022-12-03T02:02:46.662Z,23.77
2022-12-03T02:03:49.020Z,23.30
2022-12-03T02:04:53.358Z,22.67
2022-12-03T02:05:56.938Z,20.42
2022-12-03T02:07:27.929Z,23.00
2022-12-03T02:08:35.848Z,22.25
2022-12-03T02:09:38.060Z,23.38
2022-12-03T02:10:40.740Z,24.27
2022-12-03T02:11:46.335Z,24.65
2022-12-03T02:13:07.187Z,23.98
2022-12-03T02:14:13.845Z,25.65
2022-12-03T02:15:16.658Z,22.90
2022-12-03T02:16:19.125Z,24.95
2022-12-03T02:17:21.520Z,22.50
2022-12-03T02:18:23.849Z,22.92
2022-12-03T02:19:29.453Z,22.85
2022-12-03T02:20:35.831Z,23.50
2022-12-03T02:21:49.120Z,25.15
2022-12-03T02:23:06.632Z,23.13
2022-12-03T02:24:15.180Z,22.73
2022-12-03T02:25:27.566Z,23.55
2022-12-03T02:26:29.936Z,24.00
2022-12-03T02:27:32.249Z,23.42
2022-12-03T02:28:34.810Z,24.50
2022-12-03T02:29:37.265Z,24.17
2022-12-03T02:30:39.639Z,24.92
2022-12-03T02:31:43.337Z,25.25
2022-12-03T02:32:45.844Z,22.17
2022-12-03T02:33:48.172Z,24.77
2022-12-03T02:34:52.144Z,23.58
2022-12-03T02:35:57.945Z,24.35
2022-12-03T02:37:05.135Z,22.98
2022-12-03T02:38:21.134Z,25.20
2022-12-03T02:39:23.476Z,21.30
2022-12-03T02:40:30.856Z,24.05
2022-12-03T02:41:51.533Z,23.67
2022-12-03T02:42:58.678Z,24.70
2022-12-03T02:44:01.350Z,25.23
2022-12-03T02:45:11.700Z,22.83
2022-12-03T02:46:13.963Z,22.23
2022-12-03T02:47:16.487Z,23.33
2022-12-03T02:48:24.081Z,23.55
2022-12-03T02:49:26.429Z,24.92
2022-12-03T02:50:35.800Z,21.85
2022-12-03T02:51:38.050Z,23.33
2022-12-03T02:52:42.044Z,24.92
2022-12-03T02:53:48.708Z,25.77
2022-12-03T02:54:52.177Z,22.70
2022-12-03T02:55:57.407Z,25.88
2022-12-03T02:56:59.891Z,25.27
2022-12-03T02:58:04.050Z,25.45
2022-12-03T02:59:06.476Z,24.33
2022-12-03T03:00:10.904Z,25.25
2022-12-03T03:01:15.465Z,27.90
2022-12-03T03:02:18.072Z,24.52
2022-12-03T03:03:22.226Z,24.83
2022-12-03T03:04:24.955Z,23.90
2022-12-03T03:05:27.396Z,22.88
2022-12-03T03:06:29.675Z,25.17
2022-12-03T03:07:31.989Z,26.30
2022-12-03T03:08:35.257Z,25.75
2022-12-03T03:09:37.714Z,27.15
2022-12-03T03:10:41.377Z,26.48
2022-12-03T03:11:43.649Z,28.15
2022-12-03T03:12:46.455Z,28.08
2022-12-03T03:13:48.797Z,25.40
2022-12-03T03:14:51.206Z,28.63
2022-12-03T03:15:54.798Z,27.05
2022-12-03T03:16:57.936Z,27.05
2022-12-03T03:18:00.253Z,27.40
2022-12-03T03:19:02.777Z,27.35
2022-12-03T03:20:06.956Z,28.20
2022-12-03T03:21:09.638Z,27.05
2022-12-03T03:22:12.389Z,30.30
2022-12-03T03:23:21.482Z,30.80
2022-12-03T03:24:24.331Z,31.95
2022-12-03T03:25:26.614Z,29.02
2022-12-03T03:26:29.912Z,30.38
2022-12-03T03:27:32.903Z,27.10
2022-12-03T03:28:38.693Z,27.55
2022-12-03T03:29:40.943Z,29.02
2022-12-03T03:30:46.561Z,29.42
2022-12-03T03:31:49.543Z,32.13
2022-12-03T03:32:51.860Z,31.48
2022-12-03T03:33:54.261Z,30.95
2022-12-03T03:34:57.215Z,31.83
2022-12-03T03:36:00.562Z,30.65
2022-12-03T03:37:02.808Z,30.75
2022-12-03T03:38:05.642Z,30.88
2022-12-03T03:39:08.152Z,32.15
2022-12-03T03:40:10.953Z,31.15
2022-12-03T03:41:14.452Z,30.17
2022-12-03T03:42:16.883Z,31.60
2022-12-03T03:43:22.048Z,32.15
2022-12-03T03:44:24.371Z,33.63
2022-12-03T03:45:29.285Z,32.40
2022-12-03T03:46:33.593Z,32.75
2022-12-03T03:47:36.082Z,32.83
2022-12-03T03:48:38.694Z,32.17
2022-12-03T03:49:41.730Z,31.13
2022-12-03T03:50:45.029Z,31.38
2022-12-03T03:51:47.652Z,31.95
2022-12-03T03:52:49.926Z,33.30
2022-12-03T03:53:52.579Z,32.67
2022-12-03T03:54:56.053Z,33.17
2022-12-03T03:55:58.411Z,34.42
2022-12-03T03:57:00.692Z,35.90
2022-12-03T03:58:03.064Z,33.05
2022-12-03T03:59:05.468Z,36.10
2022-12-03T04:00:08.922Z,36.85
2022-12-03T04:01:13.224Z,34.08
2022-12-03T04:02:19.676Z,36.67
2022-12-03T04:03:22.075Z,33.33
2022-12-03T04:04:29.261Z,34.08
2022-12-03T04:05:31.778Z,33.95
2022-12-03T04:06:33.991Z,36.05
2022-12-03T04:07:36.264Z,33.35
2022-12-03T04:08:38.513Z,33.88
2022-12-03T04:09:40.825Z,34.00
2022-12-03T04:11:01.547Z,34.00
2022-12-03T04:12:22.393Z,37.95
2022-12-03T04:13:24.601Z,32.08
2022-12-03T04:14:26.845Z,33.25
2022-12-03T04:15:29.253Z,32.65
2022-12-03T04:16:31.673Z,33.33
2022-12-03T04:17:33.955Z,34.40
2022-12-03T04:18:45.084Z,30.42
2022-12-03T04:19:47.317Z,30.38
2022-12-03T04:20:49.545Z,33.10
2022-12-03T04:22:10.468Z,32.58
2022-12-03T04:23:12.699Z,31.23
2022-12-03T04:24:14.887Z,32.35
2022-12-03T04:25:35.656Z,32.40
2022-12-03T04:26:56.547Z,34.03
2022-12-03T04:28:17.291Z,35.47
2022-12-03T04:29:21.648Z,34.03
2022-12-03T04:30:23.955Z,33.33
2022-12-03T04:31:44.607Z,33.50
2022-12-03T04:33:05.309Z,34.40
2022-12-03T04:34:26.820Z,29.55
2022-12-03T04:35:44.304Z,33.17
2022-12-03T04:36:47.147Z,35.28
2022-12-03T04:37:49.378Z,30.80
2022-12-03T04:38:51.705Z,35.97
2022-12-03T04:39:54.057Z,32.13
2022-12-03T04:41:04.055Z,34.17
2022-12-03T04:42:06.507Z,32.85
2022-12-03T04:43:08.766Z,33.40
2022-12-03T04:44:30.027Z,36.00
2022-12-03T04:45:32.384Z,32.38
2022-12-03T04:46:34.846Z,32.67
2022-12-03T04:47:40.050Z,35.20
2022-12-03T04:48:42.446Z,36.05
2022-12-03T04:49:49.715Z,34.38
2022-12-03T04:50:52.099Z,37.15
2022-12-03T04:51:54.325Z,32.60
2022-12-03T04:52:56.892Z,34.10
2022-12-03T04:53:59.167Z,32.72
2022-12-03T04:55:01.362Z,35.05
2022-12-03T04:56:03.605Z,35.78
2022-12-03T04:57:06.813Z,34.53
2022-12-03T04:58:09.588Z,33.20
2022-12-03T04:59:16.021Z,33.95
2022-12-03T05:00:19.161Z,34.30
2022-12-03T05:01:21.522Z,34.55
2022-12-03T05:02:23.947Z,33.60
2022-12-03T05:03:26.180Z,35.60
2022-12-03T05:04:28.695Z,34.05
2022-12-03T05:05:31.112Z,35.65
2022-12-03T05:06:33.315Z,33.63
2022-12-03T05:07:35.574Z,35.15
2022-12-03T05:08:37.881Z,33.83
2022-12-03T05:09:40.124Z,34.25
2022-12-03T05:10:42.309Z,33.60
2022-12-03T05:11:44.846Z,35.38
2022-12-03T05:12:47.083Z,32.28
2022-12-03T05:13:50.076Z,33.67
2022-12-03T05:14:52.746Z,35.10
2022-12-03T05:15:55.157Z,34.15
2022-12-03T05:16:57.444Z,34.67
2022-12-03T05:18:00.287Z,33.28
2022-12-03T05:19:03.288Z,34.55
2022-12-03T05:20:24.926Z,34.70
2022-12-03T05:21:27.234Z,32.85
2022-12-03T05:22:29.431Z,33.75
2022-12-03T05:23:31.730Z,35.35
2022-12-03T05:24:33.918Z,37.50
2022-12-03T05:25:36.442Z,35.05
2022-12-03T05:26:38.702Z,34.45
2022-12-03T05:27:40.924Z,36.38
2022-12-03T05:28:43.133Z,35.20
2022-12-03T05:29:45.374Z,34.47
2022-12-03T05:30:47.776Z,35.05
2022-12-03T05:31:50.122Z,35.58
2022-12-03T05:32:52.379Z,33.95
2022-12-03T05:33:55.182Z,33.65
2022-12-03T05:34:57.462Z,36.15
2022-12-03T05:36:00.175Z,34.53
2022-12-03T05:37:02.353Z,32.95
2022-12-03T05:38:04.602Z,35.75
2022-12-03T05:39:06.808Z,35.35
2022-12-03T05:40:10.069Z,35.90
2022-12-03T05:41:31.018Z,39.05
2022-12-03T05:42:51.754Z,33.90
2022-12-03T05:43:55.066Z,32.40
2022-12-03T05:44:57.319Z,35.25
2022-12-03T05:45:59.580Z,38.08
2022-12-03T05:47:01.790Z,33.63
2022-12-03T05:48:06.223Z,35.10
2022-12-03T05:49:08.498Z,33.88
2022-12-03T05:50:11.024Z,35.15
2022-12-03T05:51:13.295Z,32.95
2022-12-03T05:52:15.556Z,34.13
2022-12-03T05:53:18.790Z,35.10
2022-12-03T05:54:20.988Z,34.67
2022-12-03T05:55:23.650Z,35.20
2022-12-03T05:56:25.865Z,38.70
2022-12-03T05:57:28.192Z,33.08
2022-12-03T05:58:30.467Z,35.13
2022-12-03T05:59:32.779Z,34.03
2022-12-03T06:00:42.822Z,36.22
2022-12-03T06:01:45.403Z,36.63
2022-12-03T06:02:47.896Z,36.45
2022-12-03T06:03:50.401Z,34.92
2022-12-03T06:04:53.466Z,34.83
2022-12-03T06:05:55.982Z,35.53
2022-12-03T06:06:58.186Z,35.38
2022-12-03T06:08:00.775Z,37.10
2022-12-03T06:09:04.101Z,32.65
2022-12-03T06:10:08.527Z,37.00
2022-12-03T06:11:10.761Z,36.60
2022-12-03T06:12:13.004Z,36.20
2022-12-03T06:13:15.222Z,33.47
2022-12-03T06:14:17.487Z,34.00
2022-12-03T06:15:20.471Z,36.03
2022-12-03T06:16:22.832Z,34.75
2022-12-03T06:17:25.501Z,37.53
2022-12-03T06:18:27.705Z,36.45
2022-12-03T06:19:29.947Z,33.63
2022-12-03T06:20:32.179Z,34.40
2022-12-03T06:21:34.542Z,33.85
2022-12-03T06:22:36.810Z,35.10
2022-12-03T06:23:44.686Z,34.95
2022-12-03T06:24:47.330Z,35.13
2022-12-03T06:25:49.524Z,34.97
2022-12-03T06:26:51.898Z,34.15
2022-12-03T06:27:54.207Z,37.90
2022-12-03T06:28:56.499Z,34.03
2022-12-03T06:29:58.707Z,37.17
2022-12-03T06:31:01.200Z,35.95
2022-12-03T06:32:04.610Z,33.83
2022-12-03T06:33:06.958Z,37.03
2022-12-03T06:34:09.291Z,36.28
2022-12-03T06:35:12.639Z,32.90
2022-12-03T06:36:17.801Z,32.85
2022-12-03T06:37:23.696Z,30.63
2022-12-03T06:38:26.035Z,35.45
2022-12-03T06:39:28.430Z,33.28
2022-12-03T06:40:30.752Z,39.47
2022-12-03T06:41:33.147Z,32.80
2022-12-03T06:42:35.399Z,34.15
2022-12-03T06:43:37.768Z,32.85
2022-12-03T06:44:39.956Z,36.05
2022-12-03T06:45:46.226Z,33.47
2022-12-03T06:46:50.210Z,33.03
2022-12-03T06:47:52.522Z,31.83
2022-12-03T06:48:54.755Z,33.22
2022-12-03T06:49:56.956Z,34.85
2022-12-03T06:50:59.217Z,33.47
2022-12-03T06:52:01.643Z,34.85
2022-12-03T06:53:03.839Z,33.40
2022-12-03T06:54:06.544Z,32.15
2022-12-03T06:55:09.361Z,32.53
2022-12-03T06:56:11.577Z,35.72
2022-12-03T06:57:13.879Z,38.33
2022-12-03T06:58:16.076Z,33.90
2022-12-03T06:59:18.407Z,34.67
2022-12-03T07:00:21.275Z,32.80
2022-12-03T07:01:23.785Z,35.83
2022-12-03T07:02:26.067Z,33.03
2022-12-03T07:03:28.297Z,37.85
2022-12-03T07:04:30.788Z,32.17
2022-12-03T07:05:32.988Z,34.55
2022-12-03T07:06:35.335Z,35.55
2022-12-03T07:07:37.629Z,34.65
2022-12-03T07:08:39.908Z,35.13
2022-12-03T07:09:42.215Z,33.38
2022-12-03T07:10:44.444Z,31.80
2022-12-03T07:11:46.640Z,36.13
2022-12-03T07:12:48.891Z,34.15
2022-12-03T07:13:51.111Z,33.78
2022-12-03T07:14:53.853Z,34.63
2022-12-03T07:15:56.351Z,32.67
2022-12-03T07:16:58.590Z,35.08
2022-12-03T07:18:00.799Z,35.17
2022-12-03T07:19:05.455Z,34.63
2022-12-03T07:20:08.339Z,34.22
2022-12-03T07:21:10.846Z,34.92
2022-12-03T07:22:13.204Z,34.10
2022-12-03T07:23:15.395Z,34.55
2022-12-03T07:24:17.610Z,39.70
2022-12-03T07:25:23.520Z,42.35
2022-12-03T07:26:26.435Z,47.65
2022-12-03T07:27:28.682Z,38.15
2022-12-03T07:28:30.913Z,34.67
2022-12-03T07:29:33.199Z,37.50
2022-12-03T07:30:35.495Z,33.63
2022-12-03T07:31:37.772Z,35.15
2022-12-03T07:32:40.187Z,40.38
2022-12-03T07:33:42.522Z,36.47
2022-12-03T07:34:44.724Z,39.10
2022-12-03T07:35:47.004Z,33.60
2022-12-03T07:36:49.414Z,35.20
2022-12-03T07:37:51.632Z,33.53
2022-12-03T07:38:53.872Z,34.08
2022-12-03T07:39:56.097Z,33.95
2022-12-03T07:40:58.438Z,32.40
2022-12-03T07:42:00.624Z,33.28
2022-12-03T07:43:02.883Z,34.53
2022-12-03T07:44:10.680Z,31.60
2022-12-03T07:45:16.766Z,31.92
2022-12-03T07:46:19.071Z,34.30
2022-12-03T07:47:21.361Z,32.17
2022-12-03T07:48:38.749Z,30.35
2022-12-03T07:49:41.005Z,36.42
2022-12-03T07:50:43.274Z,31.98
2022-12-03T07:51:54.102Z,35.78
2022-12-03T07:52:56.439Z,36.55
2022-12-03T07:53:58.703Z,36.42
2022-12-03T07:55:01.059Z,33.50
2022-12-03T07:56:04.221Z,34.65
2022-12-03T07:57:07.165Z,35.80
2022-12-03T07:58:09.498Z,36.13
2022-12-03T07:59:11.675Z,34.67
2022-12-03T08:00:14.970Z,31.95
2022-12-03T08:01:17.387Z,34.58
2022-12-03T08:02:21.699Z,31.52
2022-12-03T08:03:24.812Z,31.27
2022-12-03T08:04:27.045Z,35.80
2022-12-03T08:05:29.891Z,33.60
2022-12-03T08:06:32.163Z,34.78
2022-12-03T08:07:34.484Z,31.67
2022-12-03T08:08:36.736Z,34.13
2022-12-03T08:09:40.914Z,33.70
2022-12-03T08:10:43.152Z,36.50
2022-12-03T08:11:49.003Z,35.10
2022-12-03T08:12:51.524Z,35.38
2022-12-03T08:13:53.737Z,36.15
2022-12-03T08:14:56.876Z,33.42
2022-12-03T08:16:03.008Z,33.90
2022-12-03T08:17:11.533Z,35.85
2022-12-03T08:18:19.409Z,35.33
2022-12-03T08:19:22.552Z,31.88
2022-12-03T08:20:28.422Z,34.42
2022-12-03T08:21:36.016Z,33.45
2022-12-03T08:22:38.248Z,34.72
2022-12-03T08:23:40.840Z,35.70
2022-12-03T08:24:43.902Z,34.60
2022-12-03T08:25:46.647Z,35.25
2022-12-03T08:26:49.749Z,37.83
2022-12-03T08:27:55.391Z,36.22
2022-12-03T08:28:57.786Z,35.03
2022-12-03T08:30:04.426Z,34.95
2022-12-03T08:31:19.793Z,37.15
2022-12-03T08:32:22.154Z,34.33
2022-12-03T08:33:33.631Z,35.00
2022-12-03T08:34:42.450Z,31.45
2022-12-03T08:35:50.797Z,35.90
2022-12-03T08:37:02.076Z,32.67
2022-12-03T08:38:12.852Z,37.20
2022-12-03T08:39:33.590Z,35.65
2022-12-03T08:40:39.420Z,31.55
2022-12-03T08:42:00.908Z,33.88
2022-12-03T08:43:13.982Z,35.20
2022-12-03T08:44:32.651Z,32.53
2022-12-03T08:45:40.282Z,32.10
2022-12-03T08:46:42.721Z,32.28
2022-12-03T08:47:45.283Z,33.17
2022-12-03T08:48:49.353Z,34.50
2022-12-03T08:49:55.988Z,34.38
2022-12-03T08:51:09.262Z,34.25
2022-12-03T08:52:15.854Z,31.92
2022-12-03T08:53:37.592Z,33.00
2022-12-03T08:54:39.815Z,33.05
2022-12-03T08:55:52.844Z,30.88
2022-12-03T08:56:55.302Z,31.08
2022-12-03T08:57:58.524Z,35.00
2022-12-03T08:59:18.433Z,33.08
2022-12-03T09:00:24.840Z,34.97
2022-12-03T09:01:30.044Z,34.67
2022-12-03T09:02:34.464Z,35.25
2022-12-03T09:03:38.598Z,35.00
2022-12-03T09:04:47.203Z,34.30
2022-12-03T09:05:49.460Z,30.75
2022-12-03T09:06:52.675Z,32.45
2022-12-03T09:07:55.349Z,35.63
2022-12-03T09:09:00.132Z,33.90
2022-12-03T09:10:06.371Z,34.75
2022-12-03T09:11:08.611Z,33.80
2022-12-03T09:12:10.876Z,36.97
2022-12-03T09:13:13.208Z,34.75
2022-12-03T09:14:18.856Z,35.67
2022-12-03T09:15:21.378Z,35.55
2022-12-03T09:16:25.577Z,32.08
2022-12-03T09:17:27.944Z,34.75
2022-12-03T09:18:30.240Z,32.60
2022-12-03T09:19:38.071Z,34.72
2022-12-03T09:20:43.659Z,34.45
2022-12-03T09:21:45.957Z,33.83
2022-12-03T09:22:48.711Z,34.60
2022-12-03T09:23:50.910Z,29.77
2022-12-03T09:24:53.424Z,36.92
2022-12-03T09:25:55.847Z,32.65
2022-12-03T09:26:58.111Z,34.38
2022-12-03T09:28:00.360Z,33.22
2022-12-03T09:29:05.307Z,33.78
2022-12-03T09:30:11.696Z,32.97
2022-12-03T09:31:15.285Z,33.65
2022-12-03T09:32:18.801Z,31.50
2022-12-03T09:33:21.434Z,35.88
2022-12-03T09:34:23.683Z,34.25
2022-12-03T09:35:27.280Z,31.02
2022-12-03T09:36:29.971Z,31.58
2022-12-03T09:37:32.249Z,33.00
2022-12-03T09:38:34.988Z,31.42
2022-12-03T09:39:37.207Z,34.38
2022-12-03T09:40:39.527Z,33.40
2022-12-03T09:41:41.862Z,33.08
2022-12-03T09:42:44.628Z,30.73
2022-12-03T09:44:04.002Z,31.70
2022-12-03T09:45:10.921Z,31.33
2022-12-03T09:46:13.489Z,34.47
2022-12-03T09:47:15.766Z,33.50
2022-12-03T09:48:19.440Z,33.80
2022-12-03T09:49:22.035Z,32.13
2022-12-03T09:50:26.864Z,32.03
2022-12-03T09:51:33.754Z,34.33
2022-12-03T09:52:36.136Z,32.22
2022-12-03T09:53:41.303Z,33.03
2022-12-03T09:54:51.915Z,32.55
2022-12-03T09:55:54.631Z,32.22
2022-12-03T09:56:59.396Z,45.22
2022-12-03T09:58:02.132Z,35.80
2022-12-03T09:59:14.763Z,35.97
2022-12-03T10:00:19.979Z,34.75
2022-12-03T10:01:25.019Z,31.63
2022-12-03T10:02:31.326Z,32.28
2022-12-03T10:03:33.617Z,31.77
2022-12-03T10:04:35.843Z,29.52
2022-12-03T10:05:42.526Z,32.28
2022-12-03T10:06:48.165Z,31.52
2022-12-03T10:07:51.798Z,34.70
2022-12-03T10:08:55.617Z,30.20
2022-12-03T10:09:57.847Z,31.92
2022-12-03T10:11:00.223Z,32.58
2022-12-03T10:12:02.571Z,30.90
2022-12-03T10:13:05.424Z,33.10
2022-12-03T10:14:07.665Z,32.05
2022-12-03T10:15:14.127Z,33.70
2022-12-03T10:16:20.919Z,32.67
2022-12-03T10:17:23.471Z,31.52
2022-12-03T10:18:30.804Z,29.90
2022-12-03T10:19:35.785Z,30.02
2022-12-03T10:20:38.078Z,28.52
2022-12-03T10:21:40.271Z,30.38
2022-12-03T10:22:42.671Z,30.13
2022-12-03T10:23:48.453Z,29.85
2022-12-03T10:25:13.875Z,30.98
2022-12-03T10:26:16.873Z,29.30
2022-12-03T10:27:29.223Z,30.35
2022-12-03T10:28:37.654Z,32.15
2022-12-03T10:29:39.855Z,30.92
2022-12-03T10:30:54.838Z,31.10
2022-12-03T10:31:58.497Z,30.20
2022-12-03T10:33:17.368Z,31.90
2022-12-03T10:34:26.121Z,31.00
2022-12-03T10:35:41.289Z,30.88
2022-12-03T10:36:43.583Z,29.00
2022-12-03T10:38:03.339Z,32.08
2022-12-03T10:39:09.523Z,28.80
2022-12-03T10:40:12.335Z,28.85
2022-12-03T10:41:25.894Z,34.83
2022-12-03T10:42:33.489Z,31.65
2022-12-03T10:43:35.858Z,32.30
2022-12-03T10:44:38.056Z,31.52
2022-12-03T10:45:40.997Z,27.83
2022-12-03T10:46:44.134Z,33.38
2022-12-03T10:48:11.755Z,31.85
2022-12-03T10:49:19.099Z,31.95
2022-12-03T10:50:21.313Z,34.20
2022-12-03T10:51:23.568Z,30.63
2022-12-03T10:52:26.340Z,31.02
2022-12-03T10:53:31.577Z,30.02
2022-12-03T10:54:35.305Z,31.42
2022-12-03T10:55:40.783Z,29.88
2022-12-03T10:56:43.731Z,30.67
2022-12-03T10:57:47.166Z,29.65
2022-12-03T10:58:49.521Z,29.10
2022-12-03T10:59:52.798Z,28.90
2022-12-03T11:00:57.389Z,31.17
2022-12-03T11:01:59.982Z,32.08
2022-12-03T11:03:02.407Z,32.80
2022-12-03T11:04:05.357Z,29.38
2022-12-03T11:05:07.985Z,32.72
2022-12-03T11:06:18.655Z,29.48
2022-12-03T11:07:22.098Z,30.15
2022-12-03T11:08:34.661Z,27.83
2022-12-03T11:09:36.927Z,29.88
2022-12-03T11:10:39.174Z,29.25
2022-12-03T11:11:41.527Z,30.60
2022-12-03T11:13:22.412Z,28.88
2022-12-03T11:14:51.061Z,26.17
2022-12-03T11:15:54.450Z,26.60
2022-12-03T11:16:59.375Z,26.90
2022-12-03T11:18:01.624Z,30.27
2022-12-03T11:19:04.673Z,28.52
2022-12-03T11:20:24.944Z,29.30
2022-12-03T11:21:27.246Z,28.83
2022-12-03T11:22:48.716Z,25.80
2022-12-03T11:23:51.130Z,24.90
2022-12-03T11:25:31.538Z,28.48
2022-12-03T11:26:36.452Z,27.90
2022-12-03T11:27:38.660Z,27.65
2022-12-03T11:28:59.482Z,27.85
2022-12-03T11:30:02.224Z,29.20
2022-12-03T11:31:11.809Z,26.23
2022-12-03T11:32:38.772Z,27.65
2022-12-03T11:33:41.523Z,25.40
2022-12-03T11:34:44.186Z,26.17
2022-12-03T11:36:10.542Z,28.45
2022-12-03T11:37:12.728Z,24.60
2022-12-03T11:38:52.849Z,28.13
2022-12-03T11:40:03.533Z,26.25
2022-12-03T11:41:11.127Z,27.75
2022-12-03T11:42:27.912Z,26.73
2022-12-03T11:43:52.099Z,26.33
2022-12-03T11:45:06.134Z,23.20
2022-12-03T11:46:10.226Z,27.95
2022-12-03T11:47:16.882Z,26.20
2022-12-03T11:48:19.244Z,25.23
2022-12-03T11:49:51.057Z,27.55
2022-12-03T11:50:54.047Z,26.83
2022-12-03T11:51:58.104Z,28.55
2022-12-03T11:53:23.503Z,26.58
2022-12-03T11:54:26.330Z,28.02
2022-12-03T11:55:35.644Z,24.95
2022-12-03T11:56:45.830Z,27.55
2022-12-03T11:57:48.090Z,27.45
2022-12-03T11:58:58.864Z,26.45
2022-12-03T12:00:15.909Z,27.88
2022-12-03T12:01:38.291Z,25.85
2022-12-03T12:02:41.422Z,25.25
2022-12-03T12:03:48.378Z,27.55
2022-12-03T12:04:50.725Z,26.58
2022-12-03T12:06:09.302Z,28.63
2022-12-03T12:07:11.667Z,24.85
2022-12-03T12:08:19.213Z,26.90
2022-12-03T12:09:54.907Z,26.00
2022-12-03T12:10:58.239Z,27.98
2022-12-03T12:12:26.879Z,28.27
2022-12-03T12:13:32.100Z,25.88
2022-12-03T12:14:34.290Z,26.35
2022-12-03T12:15:39.626Z,28.20
2022-12-03T12:16:55.301Z,26.17
2022-12-03T12:17:57.677Z,25.63
2022-12-03T12:19:30.799Z,26.90
2022-12-03T12:20:33.023Z,25.40
2022-12-03T12:21:49.933Z,24.67
2022-12-03T12:22:55.011Z,27.73
2022-12-03T12:23:57.211Z,28.10
2022-12-03T12:25:01.758Z,27.27
2022-12-03T12:26:07.508Z,26.42
2022-12-03T12:27:10.798Z,24.10
2022-12-03T12:28:13.077Z,30.00
2022-12-03T12:29:15.311Z,28.83
2022-12-03T12:30:21.737Z,28.27
2022-12-03T12:31:24.027Z,27.90
2022-12-03T12:32:31.886Z,27.73
2022-12-03T12:33:35.419Z,27.17
2022-12-03T12:34:42.180Z,29.58
2022-12-03T12:35:44.470Z,27.08
2022-12-03T12:36:46.750Z,24.95
2022-12-03T12:38:10.869Z,25.63
2022-12-03T12:39:14.850Z,29.73
2022-12-03T12:40:18.913Z,29.80
2022-12-03T12:41:21.151Z,29.58
2022-12-03T12:42:35.125Z,28.08
2022-12-03T12:43:39.545Z,27.55
2022-12-03T12:44:41.883Z,36.00
2022-12-03T12:45:44.809Z,28.40
2022-12-03T12:46:48.644Z,28.30
2022-12-03T12:48:07.709Z,26.65
2022-12-03T12:49:14.998Z,26.25
2022-12-03T12:50:18.808Z,24.83
2022-12-03T12:51:21.139Z,25.60
2022-12-03T12:52:23.349Z,27.85
2022-12-03T12:53:33.860Z,25.75
2022-12-03T12:54:38.080Z,29.08
2022-12-03T12:55:40.956Z,26.73
2022-12-03T12:56:45.000Z,30.83
2022-12-03T12:57:47.403Z,28.80
2022-12-03T12:58:49.883Z,26.92
2022-12-03T12:59:53.766Z,28.25
2022-12-03T13:01:00.579Z,27.65
2022-12-03T13:02:08.594Z,26.58
2022-12-03T13:03:14.392Z,26.75
2022-12-03T13:04:22.672Z,26.48
2022-12-03T13:05:27.813Z,27.42
2022-12-03T13:06:31.924Z,26.88
2022-12-03T13:07:34.286Z,29.15
2022-12-03T13:08:48.691Z,28.92
2022-12-03T13:09:55.606Z,26.73
2022-12-03T13:11:00.257Z,28.58
2022-12-03T13:12:07.509Z,25.42
2022-12-03T13:13:23.165Z,27.25
2022-12-03T13:14:31.480Z,29.00
2022-12-03T13:15:49.398Z,29.92
2022-12-03T13:16:54.705Z,27.98
2022-12-03T13:17:57.687Z,28.17
2022-12-03T13:19:02.258Z,28.45
2022-12-03T13:20:17.148Z,29.10
2022-12-03T13:21:38.913Z,24.23
2022-12-03T13:22:41.309Z,24.15
2022-12-03T13:23:43.556Z,27.25
2022-12-03T13:24:47.909Z,26.20
2022-12-03T13:26:06.852Z,26.90
2022-12-03T13:27:20.464Z,25.70
2022-12-03T13:28:22.781Z,27.95
2022-12-03T13:29:27.083Z,25.35
2022-12-03T13:30:30.345Z,26.23
2022-12-03T13:31:39.335Z,30.75
2022-12-03T13:32:44.679Z,28.00
2022-12-03T13:33:47.028Z,27.85
2022-12-03T13:34:55.355Z,27.48
2022-12-03T13:35:57.677Z,27.77
2022-12-03T13:37:01.765Z,28.23
2022-12-03T13:38:15.274Z,27.08
2022-12-03T13:39:28.886Z,29.63
2022-12-03T13:40:35.235Z,27.13
2022-12-03T13:41:56.554Z,28.20
2022-12-03T13:42:59.910Z,26.48
2022-12-03T13:44:09.886Z,27.55
2022-12-03T13:45:15.060Z,26.73
2022-12-03T13:46:17.969Z,29.40
2022-12-03T13:47:23.695Z,28.25
2022-12-03T13:48:35.664Z,25.92
2022-12-03T13:49:38.045Z,27.33
2022-12-03T13:50:43.942Z,28.85
2022-12-03T13:51:47.269Z,26.90
2022-12-03T13:52:49.624Z,26.75
2022-12-03T13:53:52.316Z,27.17
2022-12-03T13:54:56.742Z,33.28
2022-12-03T13:56:23.447Z,27.77
2022-12-03T13:57:25.738Z,27.58
2022-12-03T13:58:27.923Z,28.98
2022-12-03T13:59:30.138Z,30.33
2022-12-03T14:00:32.430Z,27.33